createdAt,value
2018-01-08T00:00:29.132Z,1020.1
2018-01-08T00:01:30.844Z,1020.1
2018-01-08T00:02:32.618Z,1020.0
2018-01-08T00:03:34.684Z,1020.0
2018-01-08T00:04:36.355Z,1020.0
2018-01-08T00:05:38.201Z,1020.1
2018-01-08T00:06:40.233Z,1020.1
2018-01-08T00:07:42.072Z,1020.0
2018-01-08T00:08:46.776Z,1020.1
2018-01-08T00:09:48.485Z,1020.0
2018-01-08T00:10:50.185Z,1020.0
2018-01-08T00:11:51.894Z,1020.0
2018-01-08T00:12:54.132Z,1020.0
2018-01-08T00:13:55.763Z,1020.0
2018-01-08T00:14:57.453Z,1020.0
2018-01-08T00:15:59.422Z,1020.0
2018-01-08T00:17:01.525Z,1020.0
2018-01-08T00:19:29.180Z,1019.9
2018-01-08T00:20:30.944Z,1019.9
2018-01-08T00:21:32.871Z,1019.9
2018-01-08T00:22:34.971Z,1019.9
2018-01-08T00:23:36.949Z,1019.9
2018-01-08T00:24:39.019Z,1019.9
2018-01-08T00:25:40.892Z,1019.9
2018-01-08T00:26:42.946Z,1019.9
2018-01-08T00:27:44.870Z,1019.8
2018-01-08T00:28:46.971Z,1019.8
2018-01-08T00:29:49.004Z,1019.8
2018-01-08T00:30:50.937Z,1019.8
2018-01-08T00:31:55.230Z,1019.8
2018-01-08T00:32:56.963Z,1019.8
2018-01-08T00:33:58.894Z,1019.8
2018-01-08T00:35:00.625Z,1019.8
2018-01-08T00:36:03.317Z,1019.8
2018-01-08T00:37:05.310Z,1019.8
2018-01-08T00:38:07.555Z,1019.8
2018-01-08T00:39:09.263Z,1019.8
2018-01-08T00:40:11.423Z,1019.8
2018-01-08T00:41:13.665Z,1019.8
2018-01-08T00:42:15.738Z,1019.8
2018-01-08T00:43:17.709Z,1019.7
2018-01-08T00:44:19.816Z,1019.7
2018-01-08T00:45:21.906Z,1019.7
2018-01-08T00:46:24.153Z,1019.7
2018-01-08T00:47:29.450Z,1019.7
2018-01-08T00:48:31.554Z,1019.6
2018-01-08T00:49:33.560Z,1019.6
2018-01-08T00:50:35.616Z,1019.7
2018-01-08T00:51:37.591Z,1019.7
2018-01-08T00:52:39.591Z,1019.7
2018-01-08T00:53:41.742Z,1019.6
2018-01-08T00:54:43.704Z,1019.6
2018-01-08T00:55:45.787Z,1019.7
2018-01-08T00:56:48.626Z,1019.7
2018-01-08T00:57:50.690Z,1019.7
2018-01-08T00:58:52.711Z,1019.6
2018-01-08T00:59:54.900Z,1019.7
2018-01-08T01:00:57.121Z,1019.7
2018-01-08T01:02:00.366Z,1019.7
2018-01-08T01:03:02.148Z,1019.6
2018-01-08T01:04:04.265Z,1019.6
2018-01-08T01:05:06.267Z,1019.6
2018-01-08T01:06:23.106Z,1019.6
2018-01-08T01:07:24.774Z,1019.7
2018-01-08T01:08:26.578Z,1019.6
2018-01-08T01:09:28.275Z,1019.6
2018-01-08T01:10:30.182Z,1019.6
2018-01-08T01:11:32.454Z,1019.6
2018-01-08T01:12:34.698Z,1019.6
2018-01-08T01:13:36.851Z,1019.6
2018-01-08T01:14:38.875Z,1019.6
2018-01-08T01:15:55.683Z,1019.6
2018-01-08T01:16:57.721Z,1019.6
2018-01-08T01:18:00.009Z,1019.6
2018-01-08T01:19:02.037Z,1019.6
2018-01-08T01:20:04.717Z,1019.7
2018-01-08T01:21:06.686Z,1019.6
2018-01-08T01:22:08.827Z,1019.6
2018-01-08T01:23:10.829Z,1019.6
2018-01-08T01:24:13.687Z,1019.6
2018-01-08T01:25:15.910Z,1019.6
2018-01-08T01:26:17.982Z,1019.6
2018-01-08T01:27:20.114Z,1019.6
2018-01-08T01:28:22.242Z,1019.6
2018-01-08T01:29:24.341Z,1019.6
2018-01-08T01:30:26.389Z,1019.5
2018-01-08T01:31:28.423Z,1019.5
2018-01-08T01:32:30.605Z,1019.5
2018-01-08T01:33:32.607Z,1019.5
2018-01-08T01:34:35.675Z,1019.5
2018-01-08T01:35:38.544Z,1019.5
2018-01-08T01:36:40.682Z,1019.5
2018-01-08T01:37:42.648Z,1019.6
2018-01-08T01:38:44.857Z,1019.6
2018-01-08T01:39:46.889Z,1019.6
2018-01-08T01:40:48.947Z,1019.6
2018-01-08T01:41:51.085Z,1019.6
2018-01-08T01:42:54.223Z,1019.6
2018-01-08T01:43:56.899Z,1019.6
2018-01-08T01:44:58.959Z,1019.6
2018-01-08T01:46:01.827Z,1019.6
2018-01-08T01:47:04.847Z,1019.6
2018-01-08T01:48:06.944Z,1019.6
2018-01-08T01:49:09.619Z,1019.7
2018-01-08T01:50:11.843Z,1019.6
2018-01-08T01:51:13.939Z,1019.6
2018-01-08T01:52:16.109Z,1019.7
2018-01-08T01:53:18.443Z,1019.7
2018-01-08T01:54:20.525Z,1019.8
2018-01-08T01:55:22.565Z,1019.7
2018-01-08T01:56:24.605Z,1019.7
2018-01-08T01:57:27.668Z,1019.7
2018-01-08T01:58:30.846Z,1019.7
2018-01-08T01:59:34.240Z,1019.7
2018-01-08T02:00:36.322Z,1019.7
2018-01-08T02:01:38.402Z,1019.7
2018-01-08T02:02:40.563Z,1019.7
2018-01-08T02:03:42.528Z,1019.7
2018-01-08T02:04:44.664Z,1019.7
2018-01-08T02:05:46.924Z,1019.7
2018-01-08T02:06:48.923Z,1019.7
2018-01-08T02:07:51.031Z,1019.7
2018-01-08T02:08:53.863Z,1019.8
2018-01-08T02:09:56.911Z,1019.8
2018-01-08T02:10:59.670Z,1019.8
2018-01-08T02:12:01.747Z,1019.7
2018-01-08T02:13:05.062Z,1019.7
2018-01-08T02:14:07.014Z,1019.7
2018-01-08T02:15:09.031Z,1019.7
2018-01-08T02:16:11.840Z,1019.7
2018-01-08T02:17:14.422Z,1019.7
2018-01-08T02:18:16.364Z,1019.7
2018-01-08T02:19:18.642Z,1019.7
2018-01-08T02:20:20.769Z,1019.7
2018-01-08T02:21:23.610Z,1019.7
2018-01-08T02:22:25.747Z,1019.7
2018-01-08T02:23:27.840Z,1019.7
2018-01-08T02:24:32.659Z,1019.7
2018-01-08T02:25:34.723Z,1019.7
2018-01-08T02:26:36.883Z,1019.6
2018-01-08T02:27:39.706Z,1019.7
2018-01-08T02:28:42.748Z,1019.7
2018-01-08T02:29:44.926Z,1019.7
2018-01-08T02:30:47.027Z,1019.7
2018-01-08T02:31:49.055Z,1019.6
2018-01-08T02:32:53.957Z,1019.6
2018-01-08T02:33:55.953Z,1019.6
2018-01-08T02:34:57.969Z,1019.5
2018-01-08T02:36:00.093Z,1019.5
2018-01-08T02:37:02.086Z,1019.5
2018-01-08T02:38:04.071Z,1019.4
2018-01-08T02:39:06.172Z,1019.4
2018-01-08T02:40:08.336Z,1019.3
2018-01-08T02:41:10.427Z,1019.3
2018-01-08T02:42:12.611Z,1019.3
2018-01-08T02:43:14.785Z,1019.3
2018-01-08T02:44:16.865Z,1019.2
2018-01-08T02:45:19.154Z,1019.2
2018-01-08T02:46:21.201Z,1019.2
2018-01-08T02:47:23.289Z,1019.1
2018-01-08T02:48:25.448Z,1019.0
2018-01-08T02:49:27.584Z,1019.0
2018-01-08T02:50:29.724Z,1019.1
2018-01-08T02:51:31.619Z,1019.0
2018-01-08T02:52:33.755Z,1018.9
2018-01-08T02:53:35.810Z,1018.9
2018-01-08T02:54:37.771Z,1018.9
2018-01-08T02:55:40.589Z,1018.9
2018-01-08T02:56:42.948Z,1018.8
2018-01-08T02:57:45.052Z,1018.9
2018-01-08T02:58:47.144Z,1018.9
2018-01-08T02:59:49.137Z,1018.9
2018-01-08T03:00:51.417Z,1018.9
2018-01-08T03:01:53.708Z,1018.9
2018-01-08T03:02:58.746Z,1018.9
2018-01-08T03:04:01.771Z,1019.0
2018-01-08T03:05:03.904Z,1019.0
2018-01-08T03:06:06.528Z,1018.9
2018-01-08T03:07:08.242Z,1018.8
2018-01-08T03:08:10.005Z,1018.9
2018-01-08T03:09:12.656Z,1018.8
2018-01-08T03:10:14.786Z,1018.8
2018-01-08T03:11:16.890Z,1018.9
2018-01-08T03:12:18.989Z,1018.8
2018-01-08T03:13:21.261Z,1018.8
2018-01-08T03:14:24.279Z,1018.8
2018-01-08T03:15:26.037Z,1018.9
2018-01-08T03:16:28.158Z,1018.9
2018-01-08T03:17:29.975Z,1018.9
2018-01-08T03:18:32.035Z,1018.9
2018-01-08T03:19:34.940Z,1018.9
2018-01-08T03:20:37.119Z,1018.8
2018-01-08T03:21:39.307Z,1018.8
2018-01-08T03:22:41.714Z,1018.8
2018-01-08T03:23:43.764Z,1018.9
2018-01-08T03:24:45.799Z,1018.9
2018-01-08T03:25:47.812Z,1018.9
2018-01-08T03:26:50.217Z,1018.9
2018-01-08T03:27:53.097Z,1018.9
2018-01-08T03:28:55.199Z,1018.9
2018-01-08T03:29:57.064Z,1018.9
2018-01-08T03:30:59.528Z,1018.9
2018-01-08T03:32:01.663Z,1018.9
2018-01-08T03:33:03.648Z,1019.0
2018-01-08T03:34:05.809Z,1018.9
2018-01-08T03:35:07.959Z,1018.9
2018-01-08T03:36:10.099Z,1018.9
2018-01-08T03:37:12.177Z,1018.9
2018-01-08T03:38:14.221Z,1018.9
2018-01-08T03:39:17.287Z,1018.9
2018-01-08T03:40:19.331Z,1018.9
2018-01-08T03:41:22.242Z,1018.9
2018-01-08T03:42:24.353Z,1018.9
2018-01-08T03:43:26.388Z,1018.8
2018-01-08T03:44:28.521Z,1018.8
2018-01-08T03:45:30.422Z,1018.8
2018-01-08T03:46:32.993Z,1018.8
2018-01-08T03:47:35.061Z,1018.9
2018-01-08T03:48:37.688Z,1018.8
2018-01-08T03:49:39.621Z,1018.8
2018-01-08T03:50:42.102Z,1018.9
2018-01-08T03:51:44.269Z,1018.8
2018-01-08T03:52:46.678Z,1018.8
2018-01-08T03:53:49.744Z,1018.8
2018-01-08T03:54:52.107Z,1018.8
2018-01-08T03:55:54.436Z,1018.9
2018-01-08T03:56:56.414Z,1018.9
2018-01-08T03:57:58.234Z,1018.9
2018-01-08T03:59:00.335Z,1018.9
2018-01-08T04:00:02.635Z,1018.9
2018-01-08T04:01:04.916Z,1018.9
2018-01-08T04:02:07.022Z,1018.9
2018-01-08T04:03:09.606Z,1018.9
2018-01-08T04:04:11.929Z,1018.9
2018-01-08T04:05:13.964Z,1018.8
2018-01-08T04:06:15.902Z,1018.8
2018-01-08T04:07:17.853Z,1018.8
2018-01-08T04:08:19.645Z,1018.7
2018-01-08T04:09:22.788Z,1018.8
2018-01-08T04:10:24.890Z,1018.8
2018-01-08T04:11:26.961Z,1018.9
2018-01-08T04:12:35.448Z,1018.8
2018-01-08T04:13:37.968Z,1018.8
2018-01-08T04:14:40.547Z,1018.9
2018-01-08T04:15:42.437Z,1018.8
2018-01-08T04:16:44.418Z,1018.9
2018-01-08T04:17:46.484Z,1018.8
2018-01-08T04:18:48.899Z,1018.9
2018-01-08T04:19:51.210Z,1018.9
2018-01-08T04:20:54.426Z,1018.8
2018-01-08T04:21:56.653Z,1018.8
2018-01-08T04:22:59.079Z,1018.8
2018-01-08T04:24:01.124Z,1018.8
2018-01-08T04:25:03.444Z,1018.9
2018-01-08T04:26:05.440Z,1018.9
2018-01-08T04:27:07.680Z,1018.8
2018-01-08T04:28:10.770Z,1018.7
2018-01-08T04:29:15.792Z,1018.8
2018-01-08T04:30:17.903Z,1018.8
2018-01-08T04:31:20.426Z,1018.8
2018-01-08T04:32:22.682Z,1018.8
2018-01-08T04:33:24.836Z,1018.8
2018-01-08T04:34:28.022Z,1018.8
2018-01-08T04:35:30.113Z,1018.7
2018-01-08T04:36:32.065Z,1018.8
2018-01-08T04:37:34.934Z,1018.8
2018-01-08T04:38:37.060Z,1018.8
2018-01-08T04:39:39.295Z,1018.8
2018-01-08T04:40:41.626Z,1018.9
2018-01-08T04:41:43.838Z,1018.9
2018-01-08T04:42:46.718Z,1018.9
2018-01-08T04:43:49.119Z,1018.9
2018-01-08T04:44:51.239Z,1018.9
2018-01-08T04:45:56.174Z,1018.8
2018-01-08T04:46:58.164Z,1018.9
2018-01-08T04:48:00.312Z,1018.9
2018-01-08T04:49:02.481Z,1018.8
2018-01-08T04:50:04.335Z,1018.8
2018-01-08T04:51:09.138Z,1018.9
2018-01-08T04:52:11.395Z,1018.9
2018-01-08T04:53:14.290Z,1018.8
2018-01-08T04:54:16.464Z,1018.8
2018-01-08T04:55:18.418Z,1018.8
2018-01-08T04:56:20.168Z,1018.8
2018-01-08T04:57:22.174Z,1018.9
2018-01-08T04:58:24.314Z,1018.9
2018-01-08T04:59:26.496Z,1018.8
2018-01-08T05:00:28.497Z,1018.8
2018-01-08T05:01:30.588Z,1018.9
2018-01-08T05:02:32.808Z,1018.9
2018-01-08T05:03:34.884Z,1019.0
2018-01-08T05:04:37.000Z,1019.0
2018-01-08T05:05:39.041Z,1019.0
2018-01-08T05:06:41.266Z,1019.0
2018-01-08T05:07:43.599Z,1019.0
2018-01-08T05:08:45.865Z,1019.0
2018-01-08T05:09:48.768Z,1019.0
2018-01-08T05:10:50.881Z,1019.0
2018-01-08T05:11:52.969Z,1019.0
2018-01-08T05:12:55.222Z,1019.0
2018-01-08T05:13:57.272Z,1018.9
2018-01-08T05:14:59.262Z,1019.0
2018-01-08T05:16:01.443Z,1019.0
2018-01-08T05:17:03.374Z,1019.0
2018-01-08T05:18:06.046Z,1019.0
2018-01-08T05:19:07.976Z,1018.9
2018-01-08T05:20:09.985Z,1019.0
2018-01-08T05:21:11.952Z,1019.0
2018-01-08T05:22:13.932Z,1019.0
2018-01-08T05:23:16.042Z,1019.0
2018-01-08T05:24:18.314Z,1019.0
2018-01-08T05:25:20.517Z,1019.1
2018-01-08T05:26:27.277Z,1019.0
2018-01-08T05:27:29.258Z,1019.0
2018-01-08T05:28:32.345Z,1019.0
2018-01-08T05:29:34.560Z,1019.0
2018-01-08T05:30:36.769Z,1019.0
2018-01-08T05:31:38.512Z,1019.0
2018-01-08T05:32:40.604Z,1018.9
2018-01-08T05:33:42.636Z,1018.9
2018-01-08T05:34:45.148Z,1019.0
2018-01-08T05:35:47.133Z,1018.9
2018-01-08T05:36:49.942Z,1018.9
2018-01-08T05:37:52.160Z,1018.9
2018-01-08T05:38:53.884Z,1019.0
2018-01-08T05:39:55.925Z,1018.9
2018-01-08T05:40:58.087Z,1018.9
2018-01-08T05:42:00.289Z,1019.0
2018-01-08T05:43:02.411Z,1018.9
2018-01-08T05:44:05.124Z,1019.0
2018-01-08T05:45:06.891Z,1018.9
2018-01-08T05:46:09.056Z,1019.0
2018-01-08T05:47:11.097Z,1019.0
2018-01-08T05:48:13.052Z,1019.0
2018-01-08T05:49:15.307Z,1019.0
2018-01-08T05:50:17.354Z,1019.0
2018-01-08T05:51:19.560Z,1019.0
2018-01-08T05:52:21.784Z,1019.0
2018-01-08T05:53:23.740Z,1019.0
2018-01-08T05:54:25.951Z,1019.1
2018-01-08T05:55:28.215Z,1019.1
2018-01-08T05:56:30.405Z,1019.1
2018-01-08T05:57:32.331Z,1019.0
2018-01-08T05:58:34.547Z,1019.1
2018-01-08T05:59:37.343Z,1019.1
2018-01-08T06:00:40.316Z,1019.0
2018-01-08T06:01:42.553Z,1019.0
2018-01-08T06:02:44.700Z,1018.9
2018-01-08T06:03:46.571Z,1019.0
2018-01-08T06:04:48.708Z,1019.0
2018-01-08T06:05:51.154Z,1019.0
2018-01-08T06:06:52.842Z,1019.0
2018-01-08T06:07:55.060Z,1019.0
2018-01-08T06:08:57.253Z,1019.0
2018-01-08T06:10:00.392Z,1019.1
2018-01-08T06:11:02.586Z,1019.0
2018-01-08T06:12:04.789Z,1019.0
2018-01-08T06:13:09.423Z,1019.1
2018-01-08T06:14:11.309Z,1019.1
2018-01-08T06:15:14.378Z,1019.0
2018-01-08T06:16:16.570Z,1019.0
2018-01-08T06:17:18.920Z,1019.1
2018-01-08T06:18:21.052Z,1019.0
2018-01-08T06:19:23.859Z,1019.1
2018-01-08T06:20:25.947Z,1019.1
2018-01-08T06:21:28.118Z,1019.1
2018-01-08T06:22:30.917Z,1019.1
2018-01-08T06:23:32.918Z,1019.1
2018-01-08T06:24:35.178Z,1019.1
2018-01-08T06:25:37.704Z,1019.1
2018-01-08T06:26:39.838Z,1019.1
2018-01-08T06:27:41.899Z,1019.1
2018-01-08T06:28:45.101Z,1019.1
2018-01-08T06:29:47.528Z,1019.2
2018-01-08T06:30:50.458Z,1019.2
2018-01-08T06:31:52.535Z,1019.2
2018-01-08T06:32:54.692Z,1019.2
2018-01-08T06:33:57.401Z,1019.3
2018-01-08T06:34:59.616Z,1019.3
2018-01-08T06:36:02.277Z,1019.3
2018-01-08T06:37:04.078Z,1019.3
2018-01-08T06:38:06.916Z,1019.3
2018-01-08T06:39:09.879Z,1019.3
2018-01-08T06:40:12.011Z,1019.3
2018-01-08T06:41:14.948Z,1019.4
2018-01-08T06:42:17.147Z,1019.4
2018-01-08T06:43:19.304Z,1019.4
2018-01-08T06:44:21.446Z,1019.4
2018-01-08T06:45:23.582Z,1019.3
2018-01-08T06:46:25.263Z,1019.4
2018-01-08T06:47:27.059Z,1019.3
2018-01-08T06:48:29.762Z,1019.3
2018-01-08T06:49:31.783Z,1019.3
2018-01-08T06:50:34.023Z,1019.3
2018-01-08T06:51:36.058Z,1019.3
2018-01-08T06:52:38.111Z,1019.3
2018-01-08T06:53:40.054Z,1019.3
2018-01-08T06:54:42.729Z,1019.3
2018-01-08T06:55:45.901Z,1019.3
2018-01-08T06:56:48.775Z,1019.4
2018-01-08T06:57:50.800Z,1019.3
2018-01-08T06:58:52.888Z,1019.4
2018-01-08T06:59:54.744Z,1019.3
2018-01-08T07:00:56.745Z,1019.3
2018-01-08T07:01:58.964Z,1019.3
2018-01-08T07:03:01.025Z,1019.3
2018-01-08T07:04:02.989Z,1019.3
2018-01-08T07:05:05.059Z,1019.3
2018-01-08T07:06:07.184Z,1019.3
2018-01-08T07:07:09.259Z,1019.3
2018-01-08T07:08:11.309Z,1019.2
2018-01-08T07:09:14.196Z,1019.2
2018-01-08T07:10:16.274Z,1019.3
2018-01-08T07:11:19.289Z,1019.3
2018-01-08T07:12:24.317Z,1019.3
2018-01-08T07:13:26.402Z,1019.2
2018-01-08T07:14:28.453Z,1019.3
2018-01-08T07:15:30.401Z,1019.3
2018-01-08T07:16:32.447Z,1019.3
2018-01-08T07:17:35.189Z,1019.3
2018-01-08T07:18:37.260Z,1019.3
2018-01-08T07:19:39.405Z,1019.2
2018-01-08T07:20:41.507Z,1019.2
2018-01-08T07:21:43.628Z,1019.2
2018-01-08T07:22:45.944Z,1019.2
2018-01-08T07:23:48.019Z,1019.2
2018-01-08T07:24:50.100Z,1019.2
2018-01-08T07:25:52.213Z,1019.2
2018-01-08T07:26:56.299Z,1019.2
2018-01-08T07:27:58.415Z,1019.2
2018-01-08T07:29:00.502Z,1019.2
2018-01-08T07:30:02.584Z,1019.2
2018-01-08T07:31:04.606Z,1019.2
2018-01-08T07:32:07.260Z,1019.2
2018-01-08T07:33:09.322Z,1019.2
2018-01-08T07:34:12.218Z,1019.1
2018-01-08T07:35:14.267Z,1019.1
2018-01-08T07:36:16.266Z,1019.2
2018-01-08T07:37:18.382Z,1019.1
2018-01-08T07:38:20.461Z,1019.1
2018-01-08T07:39:22.551Z,1019.1
2018-01-08T07:40:25.262Z,1019.1
2018-01-08T07:41:28.411Z,1019.1
2018-01-08T07:42:31.223Z,1019.1
2018-01-08T07:43:33.267Z,1019.1
2018-01-08T07:44:35.316Z,1019.1
2018-01-08T07:45:38.365Z,1019.1
2018-01-08T07:46:40.411Z,1019.1
2018-01-08T07:47:43.290Z,1019.1
2018-01-08T07:48:45.441Z,1019.1
2018-01-08T07:49:47.424Z,1019.1
2018-01-08T07:50:49.422Z,1019.1
2018-01-08T07:51:51.464Z,1019.1
2018-01-08T07:52:53.689Z,1019.1
2018-01-08T07:53:55.812Z,1019.1
2018-01-08T07:55:04.762Z,1019.1
2018-01-08T07:56:06.852Z,1019.1
2018-01-08T07:57:08.897Z,1019.0
2018-01-08T07:58:10.899Z,1019.0
2018-01-08T08:00:23.720Z,1019.1
2018-01-08T08:01:25.332Z,1019.1
2018-01-08T08:02:27.039Z,1019.1
2018-01-08T08:03:28.686Z,1019.1
2018-01-08T08:04:30.882Z,1019.1
2018-01-08T08:05:32.996Z,1019.1
2018-01-08T08:06:35.286Z,1019.1
2018-01-08T08:07:37.077Z,1019.1
2018-01-08T08:08:38.791Z,1019.1
2018-01-08T08:09:40.510Z,1019.1
2018-01-08T08:10:42.266Z,1019.1
2018-01-08T08:11:44.057Z,1019.2
2018-01-08T08:12:45.857Z,1019.1
2018-01-08T08:13:47.676Z,1019.1
2018-01-08T08:14:49.427Z,1019.1
2018-01-08T08:15:51.056Z,1019.1
2018-01-08T08:16:52.753Z,1019.1
2018-01-08T08:17:54.569Z,1019.1
2018-01-08T08:18:56.362Z,1019.1
2018-01-08T08:19:58.070Z,1019.1
2018-01-08T08:20:59.910Z,1019.1
2018-01-08T08:22:01.823Z,1019.1
2018-01-08T08:23:04.115Z,1019.1
2018-01-08T08:24:06.223Z,1019.1
2018-01-08T08:25:08.516Z,1019.1
2018-01-08T08:26:10.895Z,1019.0
2018-01-08T08:27:13.144Z,1019.1
2018-01-08T08:28:15.452Z,1019.1
2018-01-08T08:29:17.412Z,1019.1
2018-01-08T08:30:19.430Z,1019.1
2018-01-08T08:31:21.208Z,1019.1
2018-01-08T08:32:23.021Z,1019.1
2018-01-08T08:33:24.834Z,1019.2
2018-01-08T08:34:27.291Z,1019.2
2018-01-08T08:35:29.462Z,1019.2
2018-01-08T08:36:31.580Z,1019.2
2018-01-08T08:37:34.137Z,1019.2
2018-01-08T08:38:36.099Z,1019.2
2018-01-08T08:39:38.123Z,1019.2
2018-01-08T08:40:39.872Z,1019.2
2018-01-08T08:41:41.618Z,1019.2
2018-01-08T08:42:43.367Z,1019.2
2018-01-08T08:43:45.094Z,1019.2
2018-01-08T08:44:46.897Z,1019.2
2018-01-08T08:45:48.649Z,1019.1
2018-01-08T08:46:50.346Z,1019.1
2018-01-08T08:47:52.116Z,1019.1
2018-01-08T08:48:53.834Z,1019.1
2018-01-08T08:49:55.605Z,1019.1
2018-01-08T08:50:57.324Z,1019.1
2018-01-08T08:51:59.064Z,1019.1
2018-01-08T08:53:00.757Z,1019.1
2018-01-08T08:54:02.507Z,1019.1
2018-01-08T08:55:04.442Z,1019.1
2018-01-08T08:56:06.100Z,1019.1
2018-01-08T08:57:07.824Z,1019.1
2018-01-08T08:58:09.649Z,1019.1
2018-01-08T08:59:11.459Z,1019.1
2018-01-08T09:00:13.202Z,1019.1
2018-01-08T09:01:14.951Z,1019.1
2018-01-08T09:02:16.737Z,1019.0
2018-01-08T09:03:18.469Z,1019.0
2018-01-08T09:04:20.294Z,1019.0
2018-01-08T09:05:22.046Z,1019.1
2018-01-08T09:06:23.806Z,1019.0
2018-01-08T09:07:25.536Z,1019.0
2018-01-08T09:08:27.400Z,1019.0
2018-01-08T09:09:29.145Z,1019.0
2018-01-08T09:10:31.091Z,1019.0
2018-01-08T09:11:32.868Z,1019.1
2018-01-08T09:12:34.593Z,1019.0
2018-01-08T09:13:36.349Z,1019.0
2018-01-08T09:14:38.185Z,1019.0
2018-01-08T09:15:39.986Z,1019.1
2018-01-08T09:16:41.715Z,1019.1
2018-01-08T09:17:43.476Z,1019.1
2018-01-08T09:18:45.202Z,1019.1
2018-01-08T09:19:46.903Z,1019.1
2018-01-08T09:20:48.632Z,1019.1
2018-01-08T09:21:50.455Z,1019.1
2018-01-08T09:22:52.241Z,1019.1
2018-01-08T09:23:54.070Z,1019.1
2018-01-08T09:24:55.919Z,1019.1
2018-01-08T09:25:57.774Z,1019.1
2018-01-08T09:26:59.493Z,1019.1
2018-01-08T09:28:01.267Z,1019.1
2018-01-08T09:29:03.162Z,1019.0
2018-01-08T09:30:04.894Z,1019.1
2018-01-08T09:31:06.654Z,1019.0
2018-01-08T09:32:08.413Z,1019.0
2018-01-08T09:33:10.126Z,1019.0
2018-01-08T09:34:12.030Z,1019.0
2018-01-08T09:35:13.752Z,1019.0
2018-01-08T09:36:15.604Z,1019.0
2018-01-08T09:37:17.311Z,1019.0
2018-01-08T09:38:19.079Z,1019.1
2018-01-08T09:39:20.830Z,1019.0
2018-01-08T09:40:22.662Z,1019.1
2018-01-08T09:41:24.477Z,1019.1
2018-01-08T09:42:26.413Z,1019.1
2018-01-08T09:43:28.337Z,1019.1
2018-01-08T09:44:30.082Z,1019.1
2018-01-08T09:45:31.764Z,1019.1
2018-01-08T09:46:33.630Z,1019.0
2018-01-08T09:47:35.383Z,1019.1
2018-01-08T09:48:37.120Z,1019.1
2018-01-08T09:49:38.871Z,1019.1
2018-01-08T09:50:40.578Z,1019.1
2018-01-08T09:51:42.466Z,1019.1
2018-01-08T09:52:44.724Z,1019.1
2018-01-08T09:53:46.804Z,1019.0
2018-01-08T09:54:48.866Z,1019.0
2018-01-08T09:55:50.677Z,1019.0
2018-01-08T09:56:53.600Z,1019.0
2018-01-08T09:57:56.042Z,1019.0
2018-01-08T09:58:58.570Z,1019.0
2018-01-08T10:00:00.982Z,1019.0
2018-01-08T10:01:03.798Z,1019.0
2018-01-08T10:02:06.816Z,1019.0
2018-01-08T10:03:09.012Z,1018.9
2018-01-08T10:04:12.001Z,1019.0
2018-01-08T10:05:14.659Z,1018.9
2018-01-08T10:06:17.721Z,1019.0
2018-01-08T10:08:31.792Z,1019.0
2018-01-08T10:09:33.911Z,1019.0
2018-01-08T10:10:36.712Z,1019.0
2018-01-08T10:11:39.103Z,1019.0
2018-01-08T10:12:42.439Z,1019.0
2018-01-08T10:13:45.101Z,1019.0
2018-01-08T10:14:49.742Z,1019.0
2018-01-08T10:15:52.253Z,1019.0
2018-01-08T10:16:55.141Z,1019.0
2018-01-08T10:17:59.118Z,1019.0
2018-01-08T10:19:02.250Z,1018.9
2018-01-08T10:20:05.473Z,1018.9
2018-01-08T10:21:08.614Z,1018.9
2018-01-08T10:22:10.970Z,1018.9
2018-01-08T10:23:14.279Z,1018.8
2018-01-08T10:24:16.566Z,1018.8
2018-01-08T10:25:19.960Z,1018.8
2018-01-08T10:26:22.046Z,1018.8
2018-01-08T10:27:24.735Z,1018.8
2018-01-08T10:28:27.078Z,1018.8
2018-01-08T10:29:29.591Z,1018.8
2018-01-08T10:30:31.949Z,1018.8
2018-01-08T10:31:34.525Z,1018.8
2018-01-08T10:32:36.994Z,1018.8
2018-01-08T10:33:39.352Z,1018.7
2018-01-08T10:34:42.495Z,1018.7
2018-01-08T10:35:47.150Z,1018.7
2018-01-08T10:36:49.272Z,1018.7
2018-01-08T10:37:52.620Z,1018.7
2018-01-08T10:38:55.093Z,1018.7
2018-01-08T10:39:58.583Z,1018.6
2018-01-08T10:41:02.769Z,1018.6
2018-01-08T10:42:06.540Z,1018.6
2018-01-08T10:43:09.107Z,1018.6
2018-01-08T10:44:11.723Z,1018.6
2018-01-08T10:45:14.231Z,1018.5
2018-01-08T10:46:19.602Z,1018.5
2018-01-08T10:47:22.205Z,1018.5
2018-01-08T10:48:25.430Z,1018.5
2018-01-08T10:49:28.273Z,1018.5
2018-01-08T10:50:31.675Z,1018.5
2018-01-08T10:51:33.669Z,1018.5
2018-01-08T10:52:39.103Z,1018.5
2018-01-08T10:53:41.454Z,1018.4
2018-01-08T10:54:44.650Z,1018.4
2018-01-08T10:55:46.852Z,1018.4
2018-01-08T10:56:50.116Z,1018.5
2018-01-08T10:57:52.429Z,1018.5
2018-01-08T10:58:54.779Z,1018.4
2018-01-08T10:59:58.251Z,1018.4
2018-01-08T11:01:03.173Z,1018.5
2018-01-08T11:02:05.966Z,1018.4
2018-01-08T11:03:08.269Z,1018.4
2018-01-08T11:04:10.727Z,1018.4
2018-01-08T11:05:13.870Z,1018.4
2018-01-08T11:06:17.777Z,1018.5
2018-01-08T11:07:20.257Z,1018.4
2018-01-08T11:08:22.714Z,1018.5
2018-01-08T11:09:25.211Z,1018.5
2018-01-08T11:10:27.750Z,1018.4
2018-01-08T11:11:30.230Z,1018.4
2018-01-08T11:12:32.691Z,1018.3
2018-01-08T11:13:35.003Z,1018.5
2018-01-08T11:14:37.886Z,1018.4
2018-01-08T11:15:40.838Z,1018.4
2018-01-08T11:16:42.565Z,1018.4
2018-01-08T11:17:44.360Z,1018.4
2018-01-08T11:18:48.027Z,1018.4
2018-01-08T11:19:53.163Z,1018.5
2018-01-08T11:20:55.531Z,1018.5
2018-01-08T11:21:57.718Z,1018.5
2018-01-08T11:23:00.362Z,1018.4
2018-01-08T11:24:03.995Z,1018.5
2018-01-08T11:25:06.764Z,1018.4
2018-01-08T11:26:08.703Z,1018.6
2018-01-08T11:27:11.630Z,1018.5
2018-01-08T11:28:13.897Z,1018.5
2018-01-08T11:29:16.394Z,1018.6
2018-01-08T11:30:18.550Z,1018.6
2018-01-08T11:31:20.917Z,1018.5
2018-01-08T11:32:22.886Z,1018.4
2018-01-08T11:33:24.783Z,1018.5
2018-01-08T11:34:26.741Z,1018.5
2018-01-08T11:35:28.841Z,1018.6
2018-01-08T11:36:32.157Z,1018.7
2018-01-08T11:37:34.310Z,1018.8
2018-01-08T11:38:36.454Z,1018.8
2018-01-08T11:39:38.929Z,1018.9
2018-01-08T11:40:41.470Z,1018.9
2018-01-08T11:41:44.721Z,1018.7
2018-01-08T11:42:47.182Z,1018.6
2018-01-08T11:43:49.626Z,1018.6
2018-01-08T11:44:52.151Z,1018.5
2018-01-08T11:45:54.578Z,1018.4
2018-01-08T11:46:57.037Z,1018.4
2018-01-08T11:47:59.534Z,1018.4
2018-01-08T11:49:02.218Z,1018.3
2018-01-08T11:50:04.815Z,1018.3
2018-01-08T11:51:07.687Z,1018.2
2018-01-08T11:52:12.618Z,1018.2
2018-01-08T11:53:15.683Z,1018.1
2018-01-08T11:54:18.216Z,1018.1
2018-01-08T11:55:20.624Z,1018.1
2018-01-08T11:56:23.107Z,1018.1
2018-01-08T11:57:26.282Z,1018.1
2018-01-08T11:58:28.356Z,1018.0
2018-01-08T11:59:33.040Z,1018.0
2018-01-08T12:00:34.793Z,1018.0
2018-01-08T12:01:36.570Z,1018.1
2018-01-08T12:02:38.668Z,1018.1
2018-01-08T12:03:40.445Z,1018.1
2018-01-08T12:04:42.202Z,1018.2
2018-01-08T12:05:43.973Z,1018.1
2018-01-08T12:06:45.673Z,1018.1
2018-01-08T12:07:47.833Z,1018.1
2018-01-08T12:08:49.926Z,1018.1
2018-01-08T12:09:51.985Z,1018.1
2018-01-08T12:10:53.745Z,1018.2
2018-01-08T12:11:55.527Z,1018.2
2018-01-08T12:12:57.378Z,1018.2
2018-01-08T12:14:00.078Z,1018.3
2018-01-08T12:15:01.806Z,1018.3
2018-01-08T12:16:03.589Z,1018.2
2018-01-08T12:17:05.718Z,1018.2
2018-01-08T12:18:07.496Z,1018.3
2018-01-08T12:19:09.237Z,1018.3
2018-01-08T12:20:11.781Z,1018.4
2018-01-08T12:21:13.676Z,1018.4
2018-01-08T12:22:15.810Z,1018.3
2018-01-08T12:23:18.618Z,1018.4
2018-01-08T12:24:20.385Z,1018.5
2018-01-08T12:25:22.158Z,1018.4
2018-01-08T12:26:24.245Z,1018.4
2018-01-08T12:27:26.400Z,1018.4
2018-01-08T12:28:28.209Z,1018.4
2018-01-08T12:29:31.016Z,1018.4
2018-01-08T12:30:32.768Z,1018.3
2018-01-08T12:31:34.540Z,1018.3
2018-01-08T12:32:36.330Z,1018.3
2018-01-08T12:33:39.020Z,1018.3
2018-01-08T12:34:41.510Z,1018.3
2018-01-08T12:35:43.224Z,1018.2
2018-01-08T12:36:45.561Z,1018.2
2018-01-08T12:37:47.776Z,1018.2
2018-01-08T12:38:51.023Z,1018.1
2018-01-08T12:39:53.089Z,1018.1
2018-01-08T12:40:55.479Z,1018.1
2018-01-08T12:41:58.032Z,1018.0
2018-01-08T12:43:00.848Z,1018.0
2018-01-08T12:44:03.849Z,1018.0
2018-01-08T12:45:05.562Z,1018.1
2018-01-08T12:46:07.261Z,1018.0
2018-01-08T12:47:08.987Z,1018.0
2018-01-08T12:48:10.682Z,1018.0
2018-01-08T12:49:12.415Z,1018.0
2018-01-08T12:50:14.156Z,1018.0
2018-01-08T12:51:16.200Z,1018.0
2018-01-08T12:52:18.966Z,1017.9
2018-01-08T12:53:20.897Z,1017.8
2018-01-08T12:54:22.649Z,1017.7
2018-01-08T12:55:31.058Z,1017.7
2018-01-08T12:56:32.774Z,1017.6
2018-01-08T12:57:34.519Z,1017.6
2018-01-08T12:58:36.261Z,1017.5
2018-01-08T12:59:38.012Z,1017.5
2018-01-08T13:00:42.557Z,1017.5
2018-01-08T13:01:44.242Z,1017.5